sensor_id;sensor_type;location;lat;lon;timestamp;temperature;humidity
21602;DHT22;10963;50.934;4.668;2023-08-08T00:00:22;15.40;99.90
21602;DHT22;10963;50.934;4.668;2023-08-08T00:02:48;15.40;99.90
21602;DHT22;10963;50.934;4.668;2023-08-08T00:05:13;15.40;99.90
21602;DHT22;10963;50.934;4.668;2023-08-08T00:07:41;15.40;99.90
21602;DHT22;10963;50.934;4.668;2023-08-08T00:10:07;15.40;99.90
21602;DHT22;10963;50.934;4.668;2023-08-08T00:12:36;15.40;99.90
21602;DHT22;10963;50.934;4.668;2023-08-08T00:15:04;15.30;99.90
21602;DHT22;10963;50.934;4.668;2023-08-08T00:17:30;15.30;99.90
21602;DHT22;10963;50.934;4.668;2023-08-08T00:19:56;15.30;99.90
21602;DHT22;10963;50.934;4.668;2023-08-08T00:22:24;15.20;99.90
21602;DHT22;10963;50.934;4.668;2023-08-08T00:24:49;15.30;99.90
21602;DHT22;10963;50.934;4.668;2023-08-08T00:27:15;15.30;99.90
21602;DHT22;10963;50.934;4.668;2023-08-08T00:29:41;15.40;99.90
21602;DHT22;10963;50.934;4.668;2023-08-08T00:32:11;15.40;99.90
21602;DHT22;10963;50.934;4.668;2023-08-08T00:34:37;15.40;99.90
21602;DHT22;10963;50.934;4.668;2023-08-08T00:37:07;15.30;99.90
21602;DHT22;10963;50.934;4.668;2023-08-08T00:39:35;15.30;99.90
21602;DHT22;10963;50.934;4.668;2023-08-08T00:42:01;15.20;99.90
21602;DHT22;10963;50.934;4.668;2023-08-08T00:44:26;15.20;99.90
21602;DHT22;10963;50.934;4.668;2023-08-08T00:46:54;15.20;99.90
21602;DHT22;10963;50.934;4.668;2023-08-08T00:49:20;15.20;99.90
21602;DHT22;10963;50.934;4.668;2023-08-08T00:51:47;15.20;99.90
21602;DHT22;10963;50.934;4.668;2023-08-08T00:54:13;15.30;99.90
21602;DHT22;10963;50.934;4.668;2023-08-08T00:56:41;15.30;99.90
21602;DHT22;10963;50.934;4.668;2023-08-08T00:59:12;15.30;99.90
21602;DHT22;10963;50.934;4.668;2023-08-08T01:01:39;15.30;99.90
21602;DHT22;10963;50.934;4.668;2023-08-08T01:04:05;15.20;99.90
21602;DHT22;10963;50.934;4.668;2023-08-08T01:06:42;15.20;99.90
21602;DHT22;10963;50.934;4.668;2023-08-08T01:09:13;15.20;99.90
21602;DHT22;10963;50.934;4.668;2023-08-08T01:11:40;15.20;99.90
21602;DHT22;10963;50.934;4.668;2023-08-08T01:14:08;15.20;99.90
21602;DHT22;10963;50.934;4.668;2023-08-08T01:16:34;15.10;99.90
21602;DHT22;10963;50.934;4.668;2023-08-08T01:19:00;15.10;99.90
21602;DHT22;10963;50.934;4.668;2023-08-08T01:21:28;15.20;99.90
21602;DHT22;10963;50.934;4.668;2023-08-08T01:26:43;15.20;99.90
21602;DHT22;10963;50.934;4.668;2023-08-08T01:29:09;15.20;99.90
21602;DHT22;10963;50.934;4.668;2023-08-08T01:31:35;15.20;99.90
21602;DHT22;10963;50.934;4.668;2023-08-08T01:34:03;15.20;99.90
21602;DHT22;10963;50.934;4.668;2023-08-08T01:36:39;15.20;99.90
21602;DHT22;10963;50.934;4.668;2023-08-08T01:39:12;15.20;99.90
21602;DHT22;10963;50.934;4.668;2023-08-08T01:41:39;15.20;99.90
21602;DHT22;10963;50.934;4.668;2023-08-08T01:44:11;15.00;99.90
21602;DHT22;10963;50.934;4.668;2023-08-08T01:46:39;15.00;99.90
21602;DHT22;10963;50.934;4.668;2023-08-08T01:49:05;15.10;99.90
21602;DHT22;10963;50.934;4.668;2023-08-08T01:51:33;15.20;99.90
21602;DHT22;10963;50.934;4.668;2023-08-08T01:54:01;15.20;99.90
21602;DHT22;10963;50.934;4.668;2023-08-08T01:56:27;15.20;99.90
21602;DHT22;10963;50.934;4.668;2023-08-08T01:58:53;15.20;99.90
21602;DHT22;10963;50.934;4.668;2023-08-08T02:01:22;15.10;99.90
21602;DHT22;10963;50.934;4.668;2023-08-08T02:03:49;15.10;99.90
21602;DHT22;10963;50.934;4.668;2023-08-08T02:06:18;15.10;99.90
21602;DHT22;10963;50.934;4.668;2023-08-08T02:08:46;15.20;99.90
21602;DHT22;10963;50.934;4.668;2023-08-08T02:11:12;15.20;99.90
21602;DHT22;10963;50.934;4.668;2023-08-08T02:13:40;15.20;99.90
21602;DHT22;10963;50.934;4.668;2023-08-08T02:16:05;15.20;99.90
21602;DHT22;10963;50.934;4.668;2023-08-08T02:18:35;15.20;99.90
21602;DHT22;10963;50.934;4.668;2023-08-08T02:21:08;15.10;99.90
21602;DHT22;10963;50.934;4.668;2023-08-08T02:23:34;15.10;99.90
21602;DHT22;10963;50.934;4.668;2023-08-08T02:26:04;15.20;99.90
21602;DHT22;10963;50.934;4.668;2023-08-08T02:28:29;15.20;99.90
21602;DHT22;10963;50.934;4.668;2023-08-08T02:30:57;15.10;99.90
21602;DHT22;10963;50.934;4.668;2023-08-08T02:33:23;15.10;99.90
21602;DHT22;10963;50.934;4.668;2023-08-08T02:35:49;15.20;99.90
21602;DHT22;10963;50.934;4.668;2023-08-08T02:38:17;15.10;99.90
21602;DHT22;10963;50.934;4.668;2023-08-08T02:40:45;15.10;99.90
21602;DHT22;10963;50.934;4.668;2023-08-08T02:43:13;15.10;99.90
21602;DHT22;10963;50.934;4.668;2023-08-08T02:45:39;15.00;99.90
21602;DHT22;10963;50.934;4.668;2023-08-08T02:48:09;15.00;99.90
21602;DHT22;10963;50.934;4.668;2023-08-08T02:50:37;15.10;99.90
21602;DHT22;10963;50.934;4.668;2023-08-08T02:53:03;15.10;99.90
21602;DHT22;10963;50.934;4.668;2023-08-08T02:55:28;15.10;99.90
21602;DHT22;10963;50.934;4.668;2023-08-08T02:57:54;15.10;99.90
21602;DHT22;10963;50.934;4.668;2023-08-08T03:00:20;15.00;99.90
21602;DHT22;10963;50.934;4.668;2023-08-08T03:02:45;15.00;99.90
21602;DHT22;10963;50.934;4.668;2023-08-08T03:05:11;14.90;99.90
21602;DHT22;10963;50.934;4.668;2023-08-08T03:07:37;14.90;99.90
21602;DHT22;10963;50.934;4.668;2023-08-08T03:10:03;15.00;99.90
21602;DHT22;10963;50.934;4.668;2023-08-08T03:12:32;15.00;99.90
21602;DHT22;10963;50.934;4.668;2023-08-08T03:15:00;14.90;99.90
21602;DHT22;10963;50.934;4.668;2023-08-08T03:17:26;14.90;99.90
21602;DHT22;10963;50.934;4.668;2023-08-08T03:19:56;14.90;99.90
21602;DHT22;10963;50.934;4.668;2023-08-08T03:22:22;14.90;99.90
21602;DHT22;10963;50.934;4.668;2023-08-08T03:24:52;14.90;99.90
21602;DHT22;10963;50.934;4.668;2023-08-08T03:27:21;14.80;99.90
21602;DHT22;10963;50.934;4.668;2023-08-08T03:29:49;14.70;99.90
21602;DHT22;10963;50.934;4.668;2023-08-08T03:32:15;14.70;99.90
21602;DHT22;10963;50.934;4.668;2023-08-08T03:34:42;14.70;99.90
21602;DHT22;10963;50.934;4.668;2023-08-08T03:37:10;14.70;99.90
21602;DHT22;10963;50.934;4.668;2023-08-08T03:39:36;14.70;99.90
21602;DHT22;10963;50.934;4.668;2023-08-08T03:42:04;14.80;99.90
21602;DHT22;10963;50.934;4.668;2023-08-08T03:44:30;14.70;99.90
21602;DHT22;10963;50.934;4.668;2023-08-08T03:46:56;14.80;99.90
21602;DHT22;10963;50.934;4.668;2023-08-08T03:49:21;14.70;99.90
21602;DHT22;10963;50.934;4.668;2023-08-08T03:51:47;14.70;99.90
21602;DHT22;10963;50.934;4.668;2023-08-08T03:54:14;14.70;99.90
21602;DHT22;10963;50.934;4.668;2023-08-08T03:56:40;14.50;99.90
21602;DHT22;10963;50.934;4.668;2023-08-08T03:59:06;14.50;99.90
21602;DHT22;10963;50.934;4.668;2023-08-08T04:01:32;14.50;99.90
21602;DHT22;10963;50.934;4.668;2023-08-08T04:04:00;14.40;99.90
21602;DHT22;10963;50.934;4.668;2023-08-08T04:06:26;14.40;99.90
21602;DHT22;10963;50.934;4.668;2023-08-08T04:08:57;14.30;99.90
21602;DHT22;10963;50.934;4.668;2023-08-08T04:11:22;14.30;99.90
21602;DHT22;10963;50.934;4.668;2023-08-08T04:13:48;14.30;99.90
21602;DHT22;10963;50.934;4.668;2023-08-08T04:16:14;14.30;99.90
21602;DHT22;10963;50.934;4.668;2023-08-08T04:18:40;14.40;99.90
21602;DHT22;10963;50.934;4.668;2023-08-08T04:21:05;14.40;99.90
21602;DHT22;10963;50.934;4.668;2023-08-08T04:23:34;14.40;99.90
21602;DHT22;10963;50.934;4.668;2023-08-08T04:25:59;14.30;99.90
21602;DHT22;10963;50.934;4.668;2023-08-08T04:28:25;14.30;99.90
21602;DHT22;10963;50.934;4.668;2023-08-08T04:30:51;14.30;99.90
21602;DHT22;10963;50.934;4.668;2023-08-08T04:33:16;14.50;99.90
21602;DHT22;10963;50.934;4.668;2023-08-08T04:35:42;14.50;99.90
21602;DHT22;10963;50.934;4.668;2023-08-08T04:38:14;14.40;99.90
21602;DHT22;10963;50.934;4.668;2023-08-08T04:40:40;14.40;99.90
21602;DHT22;10963;50.934;4.668;2023-08-08T04:43:06;14.40;99.90
21602;DHT22;10963;50.934;4.668;2023-08-08T04:45:32;14.50;99.90
21602;DHT22;10963;50.934;4.668;2023-08-08T04:47:57;14.60;99.90
21602;DHT22;10963;50.934;4.668;2023-08-08T04:50:25;14.70;99.90
21602;DHT22;10963;50.934;4.668;2023-08-08T04:52:51;14.60;99.90
21602;DHT22;10963;50.934;4.668;2023-08-08T04:55:17;14.80;99.90
21602;DHT22;10963;50.934;4.668;2023-08-08T04:57:45;14.80;99.90
21602;DHT22;10963;50.934;4.668;2023-08-08T05:00:11;14.70;99.90
21602;DHT22;10963;50.934;4.668;2023-08-08T05:02:37;14.70;99.90
21602;DHT22;10963;50.934;4.668;2023-08-08T05:05:05;14.70;99.90
21602;DHT22;10963;50.934;4.668;2023-08-08T05:07:33;14.70;99.90
21602;DHT22;10963;50.934;4.668;2023-08-08T05:10:02;14.90;99.90
21602;DHT22;10963;50.934;4.668;2023-08-08T05:12:28;14.90;99.90
21602;DHT22;10963;50.934;4.668;2023-08-08T05:14:56;15.00;99.90
21602;DHT22;10963;50.934;4.668;2023-08-08T05:17:22;15.10;99.90
21602;DHT22;10963;50.934;4.668;2023-08-08T05:19:47;15.10;99.90
21602;DHT22;10963;50.934;4.668;2023-08-08T05:22:13;15.30;99.90
21602;DHT22;10963;50.934;4.668;2023-08-08T05:24:43;15.20;99.90
21602;DHT22;10963;50.934;4.668;2023-08-08T05:27:11;15.20;99.90
21602;DHT22;10963;50.934;4.668;2023-08-08T05:29:39;15.20;99.90
21602;DHT22;10963;50.934;4.668;2023-08-08T05:32:07;15.40;99.90
21602;DHT22;10963;50.934;4.668;2023-08-08T05:34:35;15.50;99.90
21602;DHT22;10963;50.934;4.668;2023-08-08T05:37:04;15.50;99.90
21602;DHT22;10963;50.934;4.668;2023-08-08T05:39:32;15.40;99.90
21602;DHT22;10963;50.934;4.668;2023-08-08T05:41:58;15.60;99.90
21602;DHT22;10963;50.934;4.668;2023-08-08T05:44:24;15.50;99.90
21602;DHT22;10963;50.934;4.668;2023-08-08T05:46:49;15.70;99.90
21602;DHT22;10963;50.934;4.668;2023-08-08T05:49:15;16.00;99.90
21602;DHT22;10963;50.934;4.668;2023-08-08T05:51:41;16.20;99.90
21602;DHT22;10963;50.934;4.668;2023-08-08T05:54:06;16.30;99.90
21602;DHT22;10963;50.934;4.668;2023-08-08T05:56:40;16.50;99.90
21602;DHT22;10963;50.934;4.668;2023-08-08T05:59:05;16.80;99.90
21602;DHT22;10963;50.934;4.668;2023-08-08T06:01:31;17.10;99.90
21602;DHT22;10963;50.934;4.668;2023-08-08T06:04:00;17.40;99.90
21602;DHT22;10963;50.934;4.668;2023-08-08T06:06:26;17.70;99.90
21602;DHT22;10963;50.934;4.668;2023-08-08T06:08:54;17.80;99.90
21602;DHT22;10963;50.934;4.668;2023-08-08T06:11:20;17.50;99.90
21602;DHT22;10963;50.934;4.668;2023-08-08T06:13:47;17.60;99.90
21602;DHT22;10963;50.934;4.668;2023-08-08T06:16:14;17.70;99.90
21602;DHT22;10963;50.934;4.668;2023-08-08T06:18:43;17.90;99.90
21602;DHT22;10963;50.934;4.668;2023-08-08T06:21:09;18.00;99.90
21602;DHT22;10963;50.934;4.668;2023-08-08T06:23:39;18.20;99.90
21602;DHT22;10963;50.934;4.668;2023-08-08T06:26:05;18.30;99.90
21602;DHT22;10963;50.934;4.668;2023-08-08T06:28:33;18.30;99.90
21602;DHT22;10963;50.934;4.668;2023-08-08T06:31:01;18.20;99.90
21602;DHT22;10963;50.934;4.668;2023-08-08T06:33:29;18.00;99.90
21602;DHT22;10963;50.934;4.668;2023-08-08T06:35:56;18.20;99.90
21602;DHT22;10963;50.934;4.668;2023-08-08T06:38:24;18.20;99.90
21602;DHT22;10963;50.934;4.668;2023-08-08T06:40:49;18.20;99.90
21602;DHT22;10963;50.934;4.668;2023-08-08T06:43:15;18.20;99.90
21602;DHT22;10963;50.934;4.668;2023-08-08T06:45:41;18.40;99.90
21602;DHT22;10963;50.934;4.668;2023-08-08T06:48:09;18.40;99.90
21602;DHT22;10963;50.934;4.668;2023-08-08T06:50:35;18.40;99.90
21602;DHT22;10963;50.934;4.668;2023-08-08T06:53:02;18.80;99.90
21602;DHT22;10963;50.934;4.668;2023-08-08T06:55:28;19.00;99.90
21602;DHT22;10963;50.934;4.668;2023-08-08T06:57:54;19.30;99.90
21602;DHT22;10963;50.934;4.668;2023-08-08T07:00:20;19.20;99.90
21602;DHT22;10963;50.934;4.668;2023-08-08T07:02:48;19.10;99.90
21602;DHT22;10963;50.934;4.668;2023-08-08T07:05:13;19.30;99.90
21602;DHT22;10963;50.934;4.668;2023-08-08T07:07:41;19.50;99.90
21602;DHT22;10963;50.934;4.668;2023-08-08T07:10:07;19.70;99.90
21602;DHT22;10963;50.934;4.668;2023-08-08T07:12:37;19.90;99.90
21602;DHT22;10963;50.934;4.668;2023-08-08T07:15:03;20.00;99.90
21602;DHT22;10963;50.934;4.668;2023-08-08T07:17:31;20.20;99.90
21602;DHT22;10963;50.934;4.668;2023-08-08T07:19:57;20.30;99.90
21602;DHT22;10963;50.934;4.668;2023-08-08T07:22:23;20.50;99.90
21602;DHT22;10963;50.934;4.668;2023-08-08T07:24:49;20.70;99.90
21602;DHT22;10963;50.934;4.668;2023-08-08T07:27:17;20.80;99.90
21602;DHT22;10963;50.934;4.668;2023-08-08T07:29:42;21.10;99.90
21602;DHT22;10963;50.934;4.668;2023-08-08T07:32:08;21.30;99.90
21602;DHT22;10963;50.934;4.668;2023-08-08T07:34:36;21.20;99.90
21602;DHT22;10963;50.934;4.668;2023-08-08T07:37:02;21.20;99.90
21602;DHT22;10963;50.934;4.668;2023-08-08T07:39:31;21.20;99.90
21602;DHT22;10963;50.934;4.668;2023-08-08T07:41:57;20.90;99.90
21602;DHT22;10963;50.934;4.668;2023-08-08T07:44:25;20.70;99.90
21602;DHT22;10963;50.934;4.668;2023-08-08T07:46:53;20.90;99.90
21602;DHT22;10963;50.934;4.668;2023-08-08T07:49:21;20.90;99.90
21602;DHT22;10963;50.934;4.668;2023-08-08T07:51:46;21.10;99.90
21602;DHT22;10963;50.934;4.668;2023-08-08T07:54:15;21.10;99.90
21602;DHT22;10963;50.934;4.668;2023-08-08T07:56:43;21.20;99.90
21602;DHT22;10963;50.934;4.668;2023-08-08T07:59:08;21.10;99.90
21602;DHT22;10963;50.934;4.668;2023-08-08T08:01:35;21.20;99.90
21602;DHT22;10963;50.934;4.668;2023-08-08T08:04:03;21.30;99.90
21602;DHT22;10963;50.934;4.668;2023-08-08T08:06:31;21.20;99.90
21602;DHT22;10963;50.934;4.668;2023-08-08T08:08:57;21.40;99.90
21602;DHT22;10963;50.934;4.668;2023-08-08T08:11:23;21.70;99.90
21602;DHT22;10963;50.934;4.668;2023-08-08T08:13:49;21.60;99.90
21602;DHT22;10963;50.934;4.668;2023-08-08T08:16:14;21.70;99.90
21602;DHT22;10963;50.934;4.668;2023-08-08T08:18:40;21.80;99.90
21602;DHT22;10963;50.934;4.668;2023-08-08T08:21:08;22.00;99.90
21602;DHT22;10963;50.934;4.668;2023-08-08T08:23:34;21.80;99.90
21602;DHT22;10963;50.934;4.668;2023-08-08T08:26:00;21.70;99.90
21602;DHT22;10963;50.934;4.668;2023-08-08T08:28:26;21.80;99.90
21602;DHT22;10963;50.934;4.668;2023-08-08T08:30:54;21.90;99.90
21602;DHT22;10963;50.934;4.668;2023-08-08T08:33:22;21.90;99.90
21602;DHT22;10963;50.934;4.668;2023-08-08T08:35:48;21.70;99.90
21602;DHT22;10963;50.934;4.668;2023-08-08T08:38:13;21.40;99.90
21602;DHT22;10963;50.934;4.668;2023-08-08T08:40:43;21.70;99.90
21602;DHT22;10963;50.934;4.668;2023-08-08T08:43:11;22.00;99.90
21602;DHT22;10963;50.934;4.668;2023-08-08T08:45:38;21.90;99.90
21602;DHT22;10963;50.934;4.668;2023-08-08T08:48:12;22.10;99.90
21602;DHT22;10963;50.934;4.668;2023-08-08T08:50:43;22.00;99.90
21602;DHT22;10963;50.934;4.668;2023-08-08T08:53:13;21.80;99.90
21602;DHT22;10963;50.934;4.668;2023-08-08T08:55:40;21.90;99.90
21602;DHT22;10963;50.934;4.668;2023-08-08T08:58:06;22.00;99.90
21602;DHT22;10963;50.934;4.668;2023-08-08T09:00:33;22.00;99.90
21602;DHT22;10963;50.934;4.668;2023-08-08T09:02:59;22.20;99.90
21602;DHT22;10963;50.934;4.668;2023-08-08T09:05:26;22.00;99.90
21602;DHT22;10963;50.934;4.668;2023-08-08T09:07:52;22.00;99.90
21602;DHT22;10963;50.934;4.668;2023-08-08T09:10:18;22.00;99.90
21602;DHT22;10963;50.934;4.668;2023-08-08T09:12:49;22.10;99.90
21602;DHT22;10963;50.934;4.668;2023-08-08T09:15:15;22.10;99.90
21602;DHT22;10963;50.934;4.668;2023-08-08T09:17:45;22.10;99.90
21602;DHT22;10963;50.934;4.668;2023-08-08T09:20:12;22.40;99.90
21602;DHT22;10963;50.934;4.668;2023-08-08T09:22:39;22.50;99.90
21602;DHT22;10963;50.934;4.668;2023-08-08T09:25:06;22.30;99.90
21602;DHT22;10963;50.934;4.668;2023-08-08T09:27:32;22.60;99.90
21602;DHT22;10963;50.934;4.668;2023-08-08T09:30:00;22.60;99.90
21602;DHT22;10963;50.934;4.668;2023-08-08T09:32:32;23.10;99.90
21602;DHT22;10963;50.934;4.668;2023-08-08T09:34:58;23.20;99.90
21602;DHT22;10963;50.934;4.668;2023-08-08T09:37:28;23.10;99.90
21602;DHT22;10963;50.934;4.668;2023-08-08T09:39:57;23.20;99.90
21602;DHT22;10963;50.934;4.668;2023-08-08T09:42:26;23.20;99.90
21602;DHT22;10963;50.934;4.668;2023-08-08T09:44:56;23.20;99.90
21602;DHT22;10963;50.934;4.668;2023-08-08T09:47:22;23.80;99.90
21602;DHT22;10963;50.934;4.668;2023-08-08T09:49:48;23.50;99.90
21602;DHT22;10963;50.934;4.668;2023-08-08T09:52:14;23.60;99.90
21602;DHT22;10963;50.934;4.668;2023-08-08T09:54:41;23.50;99.90
21602;DHT22;10963;50.934;4.668;2023-08-08T09:57:10;23.20;99.90
21602;DHT22;10963;50.934;4.668;2023-08-08T09:59:36;23.10;99.90
21602;DHT22;10963;50.934;4.668;2023-08-08T10:02:07;22.90;99.90
21602;DHT22;10963;50.934;4.668;2023-08-08T10:04:35;22.60;99.90
21602;DHT22;10963;50.934;4.668;2023-08-08T10:07:01;22.50;99.90
21602;DHT22;10963;50.934;4.668;2023-08-08T10:09:27;22.50;99.90
21602;DHT22;10963;50.934;4.668;2023-08-08T10:11:54;22.30;99.90
21602;DHT22;10963;50.934;4.668;2023-08-08T10:14:29;22.20;99.90
21602;DHT22;10963;50.934;4.668;2023-08-08T10:16:58;22.30;99.90
21602;DHT22;10963;50.934;4.668;2023-08-08T10:19:24;22.10;99.90
21602;DHT22;10963;50.934;4.668;2023-08-08T10:21:57;22.10;99.90
21602;DHT22;10963;50.934;4.668;2023-08-08T10:24:26;22.30;99.90
21602;DHT22;10963;50.934;4.668;2023-08-08T10:26:58;22.40;99.90
21602;DHT22;10963;50.934;4.668;2023-08-08T10:29:26;22.20;99.90
21602;DHT22;10963;50.934;4.668;2023-08-08T10:31:58;21.90;99.90
21602;DHT22;10963;50.934;4.668;2023-08-08T10:34:37;21.50;99.90
21602;DHT22;10963;50.934;4.668;2023-08-08T10:37:16;21.70;99.90
21602;DHT22;10963;50.934;4.668;2023-08-08T10:40:00;22.10;99.90
21602;DHT22;10963;50.934;4.668;2023-08-08T10:42:31;22.50;99.90
21602;DHT22;10963;50.934;4.668;2023-08-08T10:45:03;22.80;99.90
21602;DHT22;10963;50.934;4.668;2023-08-08T10:47:35;22.90;99.90
21602;DHT22;10963;50.934;4.668;2023-08-08T10:50:04;22.90;99.90
21602;DHT22;10963;50.934;4.668;2023-08-08T10:55:46;22.20;99.90
21602;DHT22;10963;50.934;4.668;2023-08-08T10:58:14;21.90;99.90
21602;DHT22;10963;50.934;4.668;2023-08-08T11:00:45;21.50;99.90
21602;DHT22;10963;50.934;4.668;2023-08-08T11:03:11;21.30;99.90
21602;DHT22;10963;50.934;4.668;2023-08-08T11:05:39;21.30;99.90
21602;DHT22;10963;50.934;4.668;2023-08-08T11:08:12;21.50;99.90
21602;DHT22;10963;50.934;4.668;2023-08-08T11:10:39;21.80;99.90
21602;DHT22;10963;50.934;4.668;2023-08-08T11:13:06;22.20;99.90
21602;DHT22;10963;50.934;4.668;2023-08-08T11:15:36;22.30;99.90
21602;DHT22;10963;50.934;4.668;2023-08-08T11:18:03;22.50;99.90
21602;DHT22;10963;50.934;4.668;2023-08-08T11:20:36;22.40;99.90
21602;DHT22;10963;50.934;4.668;2023-08-08T11:23:03;22.40;99.90
21602;DHT22;10963;50.934;4.668;2023-08-08T11:25:36;22.30;99.90
21602;DHT22;10963;50.934;4.668;2023-08-08T11:28:02;22.30;99.90
21602;DHT22;10963;50.934;4.668;2023-08-08T11:30:30;22.60;99.90
21602;DHT22;10963;50.934;4.668;2023-08-08T11:32:58;23.00;99.90
21602;DHT22;10963;50.934;4.668;2023-08-08T11:35:25;23.20;99.90
21602;DHT22;10963;50.934;4.668;2023-08-08T11:37:55;23.10;99.90
21602;DHT22;10963;50.934;4.668;2023-08-08T11:40:23;23.60;99.90
21602;DHT22;10963;50.934;4.668;2023-08-08T11:42:54;23.90;99.90
21602;DHT22;10963;50.934;4.668;2023-08-08T11:45:20;24.30;99.90
21602;DHT22;10963;50.934;4.668;2023-08-08T11:47:54;24.00;99.90
21602;DHT22;10963;50.934;4.668;2023-08-08T11:50:21;23.70;99.90
21602;DHT22;10963;50.934;4.668;2023-08-08T11:52:54;23.70;99.90
21602;DHT22;10963;50.934;4.668;2023-08-08T11:55:20;23.30;99.90
21602;DHT22;10963;50.934;4.668;2023-08-08T11:57:49;23.40;99.90
21602;DHT22;10963;50.934;4.668;2023-08-08T12:00:15;23.60;99.90
21602;DHT22;10963;50.934;4.668;2023-08-08T12:02:47;23.60;99.90
21602;DHT22;10963;50.934;4.668;2023-08-08T12:05:15;23.50;99.90
21602;DHT22;10963;50.934;4.668;2023-08-08T12:07:49;23.40;99.90
21602;DHT22;10963;50.934;4.668;2023-08-08T12:10:17;23.70;99.90
21602;DHT22;10963;50.934;4.668;2023-08-08T12:12:44;24.10;99.90
21602;DHT22;10963;50.934;4.668;2023-08-08T12:15:11;23.90;99.90
21602;DHT22;10963;50.934;4.668;2023-08-08T12:17:39;23.50;99.90
21602;DHT22;10963;50.934;4.668;2023-08-08T12:20:07;23.40;99.90
21602;DHT22;10963;50.934;4.668;2023-08-08T12:22:33;23.50;99.90
21602;DHT22;10963;50.934;4.668;2023-08-08T12:24:59;23.50;99.90
21602;DHT22;10963;50.934;4.668;2023-08-08T12:27:25;23.40;99.90
21602;DHT22;10963;50.934;4.668;2023-08-08T12:29:51;23.70;99.90
21602;DHT22;10963;50.934;4.668;2023-08-08T12:32:24;23.60;99.90
21602;DHT22;10963;50.934;4.668;2023-08-08T12:34:52;23.80;99.90
21602;DHT22;10963;50.934;4.668;2023-08-08T12:37:17;24.40;99.90
21602;DHT22;10963;50.934;4.668;2023-08-08T12:39:43;24.60;99.90
21602;DHT22;10963;50.934;4.668;2023-08-08T12:42:10;24.70;99.90
21602;DHT22;10963;50.934;4.668;2023-08-08T12:44:35;24.80;99.90
21602;DHT22;10963;50.934;4.668;2023-08-08T12:47:01;24.60;99.90
21602;DHT22;10963;50.934;4.668;2023-08-08T12:49:27;24.20;99.90
21602;DHT22;10963;50.934;4.668;2023-08-08T12:51:55;24.40;99.90
21602;DHT22;10963;50.934;4.668;2023-08-08T12:54:21;24.30;99.90
21602;DHT22;10963;50.934;4.668;2023-08-08T12:56:47;24.10;99.90
21602;DHT22;10963;50.934;4.668;2023-08-08T12:59:13;24.00;99.90
21602;DHT22;10963;50.934;4.668;2023-08-08T13:01:39;24.20;99.90
21602;DHT22;10963;50.934;4.668;2023-08-08T13:04:05;24.10;99.90
21602;DHT22;10963;50.934;4.668;2023-08-08T13:06:31;23.80;99.90
21602;DHT22;10963;50.934;4.668;2023-08-08T13:08:59;23.80;99.90
21602;DHT22;10963;50.934;4.668;2023-08-08T13:11:27;23.80;99.90
21602;DHT22;10963;50.934;4.668;2023-08-08T13:13:53;23.50;99.90
21602;DHT22;10963;50.934;4.668;2023-08-08T13:16:21;23.50;99.90
21602;DHT22;10963;50.934;4.668;2023-08-08T13:18:49;23.60;99.90
21602;DHT22;10963;50.934;4.668;2023-08-08T13:21:15;23.80;99.90
21602;DHT22;10963;50.934;4.668;2023-08-08T13:23:43;23.90;99.90
21602;DHT22;10963;50.934;4.668;2023-08-08T13:26:11;24.00;99.90
21602;DHT22;10963;50.934;4.668;2023-08-08T13:28:37;23.90;99.90
21602;DHT22;10963;50.934;4.668;2023-08-08T13:31:04;23.50;99.90
21602;DHT22;10963;50.934;4.668;2023-08-08T13:33:32;23.40;99.90
21602;DHT22;10963;50.934;4.668;2023-08-08T13:35:58;23.40;99.90
21602;DHT22;10963;50.934;4.668;2023-08-08T13:38:23;23.50;99.90
21602;DHT22;10963;50.934;4.668;2023-08-08T13:40:49;23.40;99.90
21602;DHT22;10963;50.934;4.668;2023-08-08T13:43:15;23.70;99.90
21602;DHT22;10963;50.934;4.668;2023-08-08T13:45:41;23.80;99.90
21602;DHT22;10963;50.934;4.668;2023-08-08T13:48:07;24.00;99.90
21602;DHT22;10963;50.934;4.668;2023-08-08T13:50:33;24.10;99.90
21602;DHT22;10963;50.934;4.668;2023-08-08T13:52:58;24.40;99.90
21602;DHT22;10963;50.934;4.668;2023-08-08T13:55:24;24.10;99.90
21602;DHT22;10963;50.934;4.668;2023-08-08T13:57:52;24.30;99.90
21602;DHT22;10963;50.934;4.668;2023-08-08T14:00:20;24.40;99.90
21602;DHT22;10963;50.934;4.668;2023-08-08T14:02:47;24.60;99.90
21602;DHT22;10963;50.934;4.668;2023-08-08T14:05:13;24.50;99.90
21602;DHT22;10963;50.934;4.668;2023-08-08T14:07:38;24.30;99.90
21602;DHT22;10963;50.934;4.668;2023-08-08T14:10:05;24.20;99.90
21602;DHT22;10963;50.934;4.668;2023-08-08T14:12:31;24.30;99.90
21602;DHT22;10963;50.934;4.668;2023-08-08T14:14:57;24.40;99.90
21602;DHT22;10963;50.934;4.668;2023-08-08T14:17:25;24.50;99.90
21602;DHT22;10963;50.934;4.668;2023-08-08T14:19:53;24.70;99.90
21602;DHT22;10963;50.934;4.668;2023-08-08T14:22:19;24.60;99.90
21602;DHT22;10963;50.934;4.668;2023-08-08T14:24:47;24.40;99.90
21602;DHT22;10963;50.934;4.668;2023-08-08T14:27:14;24.40;99.90
21602;DHT22;10963;50.934;4.668;2023-08-08T14:29:43;24.50;99.90
21602;DHT22;10963;50.934;4.668;2023-08-08T14:32:11;24.60;99.90
21602;DHT22;10963;50.934;4.668;2023-08-08T14:34:37;24.20;99.90
21602;DHT22;10963;50.934;4.668;2023-08-08T14:37:05;24.00;99.90
21602;DHT22;10963;50.934;4.668;2023-08-08T14:39:34;24.00;99.90
21602;DHT22;10963;50.934;4.668;2023-08-08T14:42:02;24.20;99.90
21602;DHT22;10963;50.934;4.668;2023-08-08T14:44:33;24.20;99.90
21602;DHT22;10963;50.934;4.668;2023-08-08T14:47:04;24.00;99.90
21602;DHT22;10963;50.934;4.668;2023-08-08T14:49:32;23.60;99.90
21602;DHT22;10963;50.934;4.668;2023-08-08T14:51:58;23.50;99.90
21602;DHT22;10963;50.934;4.668;2023-08-08T14:54:24;23.50;99.90
21602;DHT22;10963;50.934;4.668;2023-08-08T14:56:49;23.20;99.90
21602;DHT22;10963;50.934;4.668;2023-08-08T14:59:16;23.00;99.90
21602;DHT22;10963;50.934;4.668;2023-08-08T15:01:42;22.80;99.90
21602;DHT22;10963;50.934;4.668;2023-08-08T15:04:10;22.50;99.90
21602;DHT22;10963;50.934;4.668;2023-08-08T15:06:40;22.40;99.90
21602;DHT22;10963;50.934;4.668;2023-08-08T15:09:06;22.50;99.90
21602;DHT22;10963;50.934;4.668;2023-08-08T15:11:31;22.70;99.90
21602;DHT22;10963;50.934;4.668;2023-08-08T15:14:02;22.50;99.90
21602;DHT22;10963;50.934;4.668;2023-08-08T15:16:28;22.30;99.90
21602;DHT22;10963;50.934;4.668;2023-08-08T15:18:55;22.30;99.90
21602;DHT22;10963;50.934;4.668;2023-08-08T15:21:23;22.50;99.90
21602;DHT22;10963;50.934;4.668;2023-08-08T15:23:48;22.50;99.90
21602;DHT22;10963;50.934;4.668;2023-08-08T15:26:15;22.50;99.90
21602;DHT22;10963;50.934;4.668;2023-08-08T15:28:48;22.50;99.90
21602;DHT22;10963;50.934;4.668;2023-08-08T15:31:14;22.60;99.90
21602;DHT22;10963;50.934;4.668;2023-08-08T15:33:41;22.40;99.90
21602;DHT22;10963;50.934;4.668;2023-08-08T15:36:07;22.50;99.90